createdAt,value
2023-04-19T00:00:43.751Z,9.67
2023-04-19T00:03:15.173Z,9.65
2023-04-19T00:05:46.462Z,9.60
2023-04-19T00:08:17.088Z,9.61
2023-04-19T00:10:47.404Z,9.59
2023-04-19T00:13:19.152Z,9.54
2023-04-19T00:15:52.370Z,9.52
2023-04-19T00:18:23.027Z,9.43
2023-04-19T00:20:53.542Z,9.30
2023-04-19T00:23:24.082Z,9.20
2023-04-19T00:25:54.820Z,9.17
2023-04-19T00:28:25.054Z,9.23
2023-04-19T00:30:57.992Z,9.20
2023-04-19T00:33:28.492Z,9.15
2023-04-19T00:36:00.906Z,9.10
2023-04-19T00:38:31.106Z,9.04
2023-04-19T00:41:02.692Z,9.02
2023-04-19T00:43:32.802Z,8.98
2023-04-19T00:46:07.018Z,8.94
2023-04-19T00:48:38.138Z,8.90
2023-04-19T00:51:10.781Z,8.88
2023-04-19T00:53:41.305Z,8.79
2023-04-19T00:56:12.884Z,8.69
2023-04-19T00:58:43.145Z,8.57
2023-04-19T01:01:16.034Z,8.46
2023-04-19T01:03:47.162Z,8.36
2023-04-19T01:06:18.090Z,8.26
2023-04-19T01:08:48.374Z,8.18
2023-04-19T01:11:18.490Z,8.08
2023-04-19T01:13:48.855Z,7.98
2023-04-19T01:16:23.932Z,7.89
2023-04-19T01:18:54.340Z,7.80
2023-04-19T01:21:26.117Z,7.72
2023-04-19T01:23:59.466Z,7.64
2023-04-19T01:26:29.669Z,7.56
2023-04-19T01:29:00.049Z,7.51
2023-04-19T01:31:30.186Z,7.46
2023-04-19T01:34:00.907Z,7.41
2023-04-19T01:36:31.557Z,7.30
2023-04-19T01:39:05.041Z,7.30
2023-04-19T01:41:35.135Z,7.24
2023-04-19T01:44:06.171Z,7.18
2023-04-19T01:46:36.848Z,7.14
2023-04-19T01:49:07.569Z,7.07
2023-04-19T01:51:37.859Z,7.08
2023-04-19T01:54:10.673Z,7.05
2023-04-19T01:56:40.956Z,7.00
2023-04-19T01:59:11.208Z,6.97
2023-04-19T02:01:41.449Z,6.87
2023-04-19T02:04:13.750Z,6.85
2023-04-19T02:06:44.128Z,6.84
2023-04-19T02:09:16.884Z,6.80
2023-04-19T02:11:49.305Z,6.75
2023-04-19T02:14:19.948Z,6.73
2023-04-19T02:16:50.245Z,6.68
2023-04-19T02:19:20.871Z,6.67
2023-04-19T02:21:51.995Z,6.63
2023-04-19T02:24:25.031Z,6.57
2023-04-19T02:26:55.313Z,6.55
2023-04-19T02:29:25.754Z,6.51
2023-04-19T02:31:56.058Z,6.47
2023-04-19T02:34:26.265Z,6.40
2023-04-19T02:36:56.686Z,6.38
2023-04-19T02:39:29.463Z,6.33
2023-04-19T02:41:59.932Z,6.28
2023-04-19T02:44:30.647Z,6.21
2023-04-19T02:47:01.173Z,6.22
2023-04-19T02:49:36.626Z,6.20
2023-04-19T02:52:08.199Z,6.16
2023-04-19T02:54:46.056Z,6.09
2023-04-19T02:57:16.892Z,6.08
2023-04-19T02:59:47.893Z,6.04
2023-04-19T03:02:18.892Z,6.02
2023-04-19T03:04:49.276Z,5.99
2023-04-19T03:07:20.247Z,5.95
2023-04-19T03:09:53.350Z,5.93
2023-04-19T03:12:23.946Z,5.86
2023-04-19T03:14:54.207Z,5.84
2023-04-19T03:17:25.047Z,5.78
2023-04-19T03:19:56.963Z,5.74
2023-04-19T03:22:28.028Z,5.69
2023-04-19T03:25:00.916Z,5.66
2023-04-19T03:27:31.425Z,5.61
2023-04-19T03:30:05.885Z,5.54
2023-04-19T03:32:36.589Z,5.52
2023-04-19T03:35:07.572Z,5.45
2023-04-19T03:37:38.552Z,5.43
2023-04-19T03:40:12.255Z,5.44
2023-04-19T03:42:42.820Z,5.40
2023-04-19T03:45:16.200Z,5.37
2023-04-19T03:47:50.217Z,5.35
2023-04-19T03:50:20.732Z,5.32
2023-04-19T03:52:55.005Z,5.29
2023-04-19T03:55:27.930Z,5.26
2023-04-19T03:57:58.363Z,5.22
2023-04-19T04:00:45.938Z,5.18
2023-04-19T04:03:17.929Z,5.18
2023-04-19T04:05:48.463Z,5.12
2023-04-19T04:08:19.370Z,4.99
2023-04-19T04:10:52.223Z,4.86
2023-04-19T04:13:22.777Z,5.01
2023-04-19T04:16:04.596Z,4.96
2023-04-19T04:18:35.398Z,4.95
2023-04-19T04:21:08.434Z,4.92
2023-04-19T04:23:42.164Z,4.75
2023-04-19T04:26:22.112Z,4.92
2023-04-19T04:29:17.974Z,4.89
2023-04-19T04:31:48.956Z,4.89
2023-04-19T04:34:22.998Z,4.90
2023-04-19T04:36:59.562Z,5.02
2023-04-19T04:39:30.047Z,4.85
2023-04-19T04:42:03.449Z,5.04
2023-04-19T04:44:34.444Z,5.03
2023-04-19T04:47:04.850Z,4.93
2023-04-19T04:49:41.176Z,5.14
2023-04-19T04:52:11.726Z,5.17
2023-04-19T04:54:54.841Z,5.18
2023-04-19T04:57:33.689Z,5.20
2023-04-19T05:00:10.144Z,5.23
2023-04-19T05:02:48.866Z,5.27
2023-04-19T05:05:19.598Z,5.33
2023-04-19T05:07:50.089Z,5.32
2023-04-19T05:10:21.268Z,5.36
2023-04-19T05:12:54.562Z,5.32
2023-04-19T05:15:25.136Z,5.29
2023-04-19T05:17:58.196Z,5.35
2023-04-19T05:20:29.215Z,5.37
2023-04-19T05:23:08.450Z,5.39
2023-04-19T05:25:39.084Z,5.39
2023-04-19T05:28:12.099Z,5.40
2023-04-19T05:30:57.357Z,5.83
2023-04-19T05:33:32.313Z,6.22
2023-04-19T05:36:03.666Z,6.65
2023-04-19T05:38:33.879Z,6.84
2023-04-19T05:41:06.115Z,7.05
2023-04-19T05:43:38.950Z,7.29
2023-04-19T05:46:11.201Z,7.62
2023-04-19T05:48:41.319Z,8.02
2023-04-19T05:51:37.553Z,9.02
2023-04-19T05:54:28.207Z,9.91
2023-04-19T05:56:58.321Z,10.45
2023-04-19T05:59:31.072Z,10.88
2023-04-19T06:02:01.698Z,10.48
2023-04-19T06:04:32.300Z,10.20
2023-04-19T06:07:04.519Z,10.35
2023-04-19T06:09:36.793Z,10.00
2023-04-19T06:12:07.097Z,9.64
2023-04-19T06:14:41.055Z,9.50
2023-04-19T06:17:11.497Z,9.16
2023-04-19T06:19:42.619Z,8.93
2023-04-19T06:22:12.786Z,9.26
2023-04-19T06:24:42.978Z,9.19
2023-04-19T06:27:13.153Z,9.21
2023-04-19T06:29:46.020Z,8.98
2023-04-19T06:32:16.221Z,9.10
2023-04-19T06:34:46.548Z,9.08
2023-04-19T06:37:16.656Z,9.01
2023-04-19T06:39:47.004Z,8.94
2023-04-19T06:42:20.030Z,8.93
2023-04-19T06:44:53.359Z,8.98
2023-04-19T06:47:23.819Z,8.92
2023-04-19T06:49:54.204Z,9.10
2023-04-19T06:52:24.928Z,9.04
2023-04-19T06:54:55.662Z,8.89
2023-04-19T06:57:25.763Z,8.84
2023-04-19T06:59:59.757Z,8.81
2023-04-19T07:02:30.348Z,8.90
2023-04-19T07:05:01.164Z,8.68
2023-04-19T07:07:31.251Z,8.42
2023-04-19T07:10:01.585Z,8.38
2023-04-19T07:12:32.059Z,8.47
2023-04-19T07:15:04.979Z,8.59
2023-04-19T07:17:37.072Z,8.68
2023-04-19T07:20:09.334Z,8.67
2023-04-19T07:22:39.600Z,8.66
2023-04-19T07:25:11.133Z,8.62
2023-04-19T07:27:41.632Z,8.63
2023-04-19T07:30:14.711Z,8.61
2023-04-19T07:32:45.098Z,8.74
2023-04-19T07:35:15.488Z,8.80
2023-04-19T07:37:45.728Z,8.79
2023-04-19T07:40:16.654Z,8.78
2023-04-19T07:42:47.182Z,8.73
2023-04-19T07:45:20.315Z,8.91
2023-04-19T07:47:50.893Z,8.93
2023-04-19T07:50:23.174Z,8.93
2023-04-19T07:52:53.502Z,8.99
2023-04-19T07:55:24.245Z,9.08
2023-04-19T07:57:54.603Z,9.08
2023-04-19T08:00:27.909Z,9.14
2023-04-19T08:02:58.183Z,9.18
2023-04-19T08:05:28.834Z,9.32
2023-04-19T08:07:59.637Z,9.29
2023-04-19T08:10:30.716Z,9.45
2023-04-19T08:13:05.140Z,9.60
2023-04-19T08:16:20.330Z,9.77
2023-04-19T08:18:29.572Z,9.88
2023-04-19T08:20:59.940Z,9.94
2023-04-19T08:23:41.313Z,10.02
2023-04-19T08:26:15.254Z,10.18
2023-04-19T08:28:45.596Z,10.24
2023-04-19T08:31:20.278Z,10.25
2023-04-19T08:33:50.704Z,10.23
2023-04-19T08:36:28.690Z,10.37
2023-04-19T08:39:12.256Z,10.52
2023-04-19T08:41:48.249Z,10.56
2023-04-19T08:44:34.976Z,10.50
2023-04-19T08:47:10.206Z,10.38
2023-04-19T08:49:44.783Z,10.37
2023-04-19T08:52:16.560Z,10.60
2023-04-19T08:54:47.179Z,10.72
2023-04-19T08:57:18.394Z,10.81
2023-04-19T08:59:51.403Z,10.70
2023-04-19T09:02:24.677Z,10.85
2023-04-19T09:04:55.363Z,10.90
2023-04-19T09:07:29.368Z,10.93
2023-04-19T09:10:10.435Z,11.02
2023-04-19T09:12:42.221Z,10.88
2023-04-19T09:15:14.073Z,11.03
2023-04-19T09:17:47.329Z,11.07
2023-04-19T09:20:17.620Z,11.12
2023-04-19T09:23:06.712Z,11.13
2023-04-19T09:25:52.885Z,11.19
2023-04-19T09:28:27.624Z,11.34
2023-04-19T09:31:10.707Z,11.41
2023-04-19T09:33:51.862Z,11.45
2023-04-19T09:36:30.920Z,11.70
2023-04-19T09:39:01.752Z,11.82
2023-04-19T09:41:33.100Z,11.79
2023-04-19T09:46:53.342Z,11.68
2023-04-19T09:49:37.477Z,11.73
2023-04-19T09:52:16.689Z,11.68
2023-04-19T09:54:49.054Z,11.95
2023-04-19T09:57:19.893Z,11.93
2023-04-19T09:59:50.126Z,12.12
2023-04-19T10:02:22.315Z,12.06
2023-04-19T10:05:11.342Z,12.09
2023-04-19T10:07:46.809Z,12.27
2023-04-19T10:10:21.538Z,12.41
2023-04-19T10:15:49.261Z,12.24
2023-04-19T10:18:22.506Z,12.31
2023-04-19T10:21:01.517Z,12.43
2023-04-19T10:23:32.163Z,12.57
2023-04-19T10:26:02.376Z,12.66
2023-04-19T10:28:34.342Z,12.79
2023-04-19T10:31:06.053Z,12.93
2023-04-19T10:33:40.082Z,13.14
2023-04-19T10:36:18.189Z,13.24
2023-04-19T10:38:52.177Z,13.28
2023-04-19T10:41:23.403Z,13.63
2023-04-19T10:44:14.798Z,13.60
2023-04-19T10:46:44.958Z,13.59
2023-04-19T10:49:15.534Z,13.55
2023-04-19T10:51:55.128Z,13.46
2023-04-19T10:54:32.968Z,13.50
2023-04-19T10:57:06.107Z,13.58
2023-04-19T10:59:37.836Z,13.67
2023-04-19T11:02:29.145Z,13.52
2023-04-19T11:05:04.634Z,13.44
2023-04-19T11:07:49.493Z,13.42
2023-04-19T11:10:32.203Z,13.44
2023-04-19T11:13:03.418Z,13.42
2023-04-19T11:15:33.543Z,13.47
2023-04-19T11:18:12.620Z,13.48
2023-04-19T11:20:46.564Z,13.47
2023-04-19T11:23:22.803Z,13.40
2023-04-19T11:25:54.471Z,13.38
2023-04-19T11:28:24.833Z,13.37
2023-04-19T11:30:57.164Z,13.55
2023-04-19T11:33:28.975Z,13.53
2023-04-19T11:35:59.236Z,13.61
2023-04-19T11:38:34.087Z,13.47
2023-04-19T11:41:04.676Z,13.62
2023-04-19T11:43:39.161Z,13.59
2023-04-19T11:46:09.967Z,13.54
2023-04-19T11:48:41.488Z,13.48
2023-04-19T11:51:12.189Z,13.59
2023-04-19T11:53:45.001Z,13.57
2023-04-19T11:56:15.698Z,13.66
2023-04-19T11:58:48.854Z,13.74
2023-04-19T12:01:19.952Z,13.68
2023-04-19T12:03:53.104Z,13.70
2023-04-19T12:06:28.300Z,13.72
2023-04-19T12:09:01.803Z,13.72
2023-04-19T12:11:46.664Z,13.79
2023-04-19T12:14:19.972Z,13.87
2023-04-19T12:17:06.403Z,14.06
2023-04-19T12:19:39.958Z,14.11
2023-04-19T12:22:20.663Z,13.98
2023-04-19T12:24:54.552Z,13.95
2023-04-19T12:27:25.946Z,13.90
2023-04-19T12:29:56.174Z,14.08
2023-04-19T12:32:26.488Z,14.23
2023-04-19T12:34:57.049Z,14.19
2023-04-19T12:37:27.668Z,14.11
2023-04-19T12:40:00.549Z,14.13
2023-04-19T12:42:30.749Z,14.16
2023-04-19T12:45:01.372Z,14.10
2023-04-19T12:47:31.537Z,14.00
2023-04-19T12:50:02.008Z,13.81
2023-04-19T12:52:32.320Z,13.80
2023-04-19T12:55:05.883Z,14.05
2023-04-19T12:57:36.255Z,13.91
2023-04-19T13:00:07.435Z,13.72
2023-04-19T13:02:38.049Z,13.78
2023-04-19T13:05:09.387Z,13.99
2023-04-19T13:07:39.758Z,13.91
2023-04-19T13:10:13.350Z,13.76
2023-04-19T13:12:43.480Z,13.62
2023-04-19T13:15:14.476Z,13.70
2023-04-19T13:17:44.798Z,13.71
2023-04-19T13:20:16.037Z,13.68
2023-04-19T13:22:46.410Z,13.65
2023-04-19T13:25:19.317Z,13.65
2023-04-19T13:27:49.515Z,13.39
2023-04-19T13:30:20.200Z,13.31
2023-04-19T13:32:50.738Z,13.28
2023-04-19T13:35:21.957Z,13.21
2023-04-19T13:37:52.594Z,13.34
2023-04-19T13:40:25.531Z,13.73
2023-04-19T13:42:57.116Z,14.35
2023-04-19T13:45:27.404Z,14.25
2023-04-19T13:47:57.935Z,13.93
2023-04-19T13:50:28.196Z,13.65
2023-04-19T13:52:58.709Z,13.48
2023-04-19T13:55:31.854Z,13.47
2023-04-19T13:58:02.417Z,13.36
2023-04-19T14:00:32.938Z,13.30
2023-04-19T14:03:03.426Z,13.41
2023-04-19T14:05:33.864Z,13.76
2023-04-19T14:08:04.333Z,13.82
2023-04-19T14:10:37.693Z,13.85
2023-04-19T14:13:08.298Z,13.61
2023-04-19T14:15:39.043Z,13.35
2023-04-19T14:18:09.783Z,13.41
2023-04-19T14:20:40.225Z,13.42
2023-04-19T14:23:11.674Z,13.27
2023-04-19T14:25:44.992Z,13.18
2023-04-19T14:28:15.826Z,13.22
2023-04-19T14:30:46.289Z,13.39
2023-04-19T14:33:16.924Z,13.37
2023-04-19T14:35:47.468Z,13.39
2023-04-19T14:38:17.811Z,13.62
2023-04-19T14:40:51.722Z,13.92
2023-04-19T14:43:22.187Z,13.97
2023-04-19T14:45:53.073Z,13.84
2023-04-19T14:48:23.609Z,13.72
2023-04-19T14:50:53.931Z,13.63
2023-04-19T14:53:24.309Z,13.47
2023-04-19T14:55:57.370Z,13.29
2023-04-19T14:58:27.728Z,13.17
2023-04-19T15:00:58.113Z,13.07
2023-04-19T15:03:28.986Z,13.07
2023-04-19T15:05:59.660Z,13.10
2023-04-19T15:08:31.022Z,13.30
2023-04-19T15:11:04.106Z,13.64
2023-04-19T15:13:35.914Z,13.60
2023-04-19T15:16:07.892Z,13.50
2023-04-19T15:18:38.571Z,13.36
2023-04-19T15:21:09.166Z,13.17
2023-04-19T15:23:39.618Z,12.97
2023-04-19T15:26:12.724Z,12.92
2023-04-19T15:28:43.083Z,12.84
2023-04-19T15:31:13.738Z,12.73
2023-04-19T15:33:44.273Z,13.11
2023-04-19T15:36:14.745Z,13.34
2023-04-19T15:38:44.981Z,13.39
2023-04-19T15:41:17.927Z,13.44
2023-04-19T15:43:48.347Z,13.30
2023-04-19T15:46:19.138Z,13.05
2023-04-19T15:48:50.341Z,12.90
2023-04-19T15:51:20.672Z,12.93
2023-04-19T15:53:50.917Z,12.91
2023-04-19T15:56:24.225Z,12.90
2023-04-19T15:58:56.927Z,12.90
2023-04-19T16:01:27.515Z,13.00
2023-04-19T16:03:58.155Z,13.13
2023-04-19T16:06:28.980Z,13.07
2023-04-19T16:08:59.399Z,12.94
2023-04-19T16:11:32.578Z,12.80
2023-04-19T16:14:02.720Z,12.72
2023-04-19T16:16:34.564Z,12.68
2023-04-19T16:19:04.869Z,12.73
2023-04-19T16:21:35.129Z,12.86
2023-04-19T16:24:05.630Z,12.92
2023-04-19T16:26:38.888Z,12.93
2023-04-19T16:29:09.027Z,12.91
2023-04-19T16:31:39.348Z,12.76
2023-04-19T16:34:09.420Z,12.88
2023-04-19T16:36:40.751Z,12.84
2023-04-19T16:39:10.981Z,12.84
2023-04-19T16:41:44.111Z,12.85
2023-04-19T16:44:14.379Z,12.70
2023-04-19T16:46:45.272Z,12.79
2023-04-19T16:49:15.894Z,12.78
2023-04-19T16:51:46.388Z,12.72
2023-04-19T16:54:16.540Z,12.70
2023-04-19T16:56:49.233Z,12.69
2023-04-19T16:59:19.470Z,12.55
2023-04-19T17:01:49.817Z,12.42
2023-04-19T17:04:20.564Z,12.15
2023-04-19T17:06:51.973Z,12.30
2023-04-19T17:09:22.139Z,12.28
2023-04-19T17:11:55.205Z,12.30
2023-04-19T17:14:26.469Z,12.31
2023-04-19T17:16:56.721Z,12.35
2023-04-19T17:19:26.969Z,12.34
2023-04-19T17:21:58.892Z,12.30
2023-04-19T17:24:29.039Z,12.26
2023-04-19T17:27:02.434Z,12.17
2023-04-19T17:29:32.795Z,12.10
2023-04-19T17:32:03.152Z,12.05
2023-04-19T17:34:36.054Z,11.99
2023-04-19T17:37:07.175Z,12.00
2023-04-19T17:39:37.332Z,11.94
2023-04-19T17:42:10.266Z,11.84
2023-04-19T17:44:40.325Z,11.77
2023-04-19T17:47:10.619Z,11.70
2023-04-19T17:49:40.810Z,11.58
2023-04-19T17:52:11.166Z,11.54
2023-04-19T17:54:41.352Z,11.48
2023-04-19T17:57:14.265Z,11.41
2023-04-19T17:59:44.696Z,11.37
2023-04-19T18:02:15.024Z,11.25
2023-04-19T18:04:51.709Z,11.28
2023-04-19T18:07:22.003Z,11.23
2023-04-19T18:09:52.144Z,11.19
2023-04-19T18:12:24.973Z,11.14
2023-04-19T18:14:55.225Z,11.03
2023-04-19T18:17:25.907Z,11.10
2023-04-19T18:19:56.439Z,11.03
2023-04-19T18:22:26.970Z,11.00
2023-04-19T18:24:57.382Z,11.00
2023-04-19T18:27:32.242Z,10.98
2023-04-19T18:30:04.146Z,10.96
2023-04-19T18:32:35.763Z,10.92
2023-04-19T18:35:06.341Z,10.92
2023-04-19T18:37:36.780Z,10.88
2023-04-19T18:40:08.562Z,10.86
2023-04-19T18:43:00.263Z,10.82
2023-04-19T18:45:32.980Z,10.84
2023-04-19T18:48:04.092Z,10.80
2023-04-19T18:50:34.600Z,10.77
2023-04-19T18:53:04.755Z,10.65
2023-04-19T18:55:34.956Z,10.71
2023-04-19T18:58:07.768Z,10.62
2023-04-19T19:00:40.903Z,10.66
2023-04-19T19:03:32.141Z,10.43
2023-04-19T19:06:01.751Z,10.38
2023-04-19T19:08:32.352Z,10.32
2023-04-19T19:13:38.802Z,10.24
2023-04-19T19:16:09.095Z,10.21
2023-04-19T19:18:39.260Z,10.20
2023-04-19T19:21:09.568Z,10.20
2023-04-19T19:23:42.528Z,10.09
2023-04-19T19:26:14.786Z,10.06
2023-04-19T19:28:47.535Z,10.05
2023-04-19T19:31:17.762Z,10.04
2023-04-19T19:33:56.983Z,10.03
2023-04-19T19:36:38.593Z,9.92
2023-04-19T19:39:15.010Z,9.89
2023-04-19T19:44:21.880Z,9.88
2023-04-19T19:46:52.145Z,9.84
2023-04-19T19:49:22.897Z,9.75
2023-04-19T19:51:58.669Z,9.75
2023-04-19T19:54:29.897Z,9.65
2023-04-19T19:57:41.963Z,9.50
2023-04-19T19:59:56.254Z,9.22
2023-04-19T20:02:27.302Z,9.12
2023-04-19T20:04:57.923Z,9.04
2023-04-19T20:07:42.499Z,8.97
2023-04-19T20:10:19.751Z,8.97
2023-04-19T20:12:50.227Z,8.92
2023-04-19T20:15:23.030Z,8.99
2023-04-19T20:17:53.124Z,9.03
2023-04-19T20:20:23.325Z,9.03
2023-04-19T20:22:53.481Z,8.91
2023-04-19T20:25:23.590Z,8.97
2023-04-19T20:27:54.413Z,9.00
2023-04-19T20:30:27.377Z,9.04
2023-04-19T20:32:57.567Z,9.04
2023-04-19T20:35:28.082Z,8.87
2023-04-19T20:38:02.414Z,8.72
2023-04-19T20:40:33.506Z,8.61
2023-04-19T20:43:04.182Z,8.65
2023-04-19T20:45:37.081Z,8.48
2023-04-19T20:48:08.794Z,8.38
2023-04-19T20:50:39.098Z,8.45
2023-04-19T20:53:09.342Z,8.50
2023-04-19T20:55:40.290Z,8.42
2023-04-19T20:58:10.975Z,8.43
2023-04-19T21:00:43.675Z,8.39
2023-04-19T21:03:14.242Z,8.29
2023-04-19T21:05:44.847Z,8.39
2023-04-19T21:08:16.292Z,8.41
2023-04-19T21:10:46.420Z,8.45
2023-04-19T21:13:16.546Z,8.40
2023-04-19T21:15:49.400Z,8.53
2023-04-19T21:18:20.477Z,8.43
2023-04-19T21:20:50.716Z,8.60
2023-04-19T21:23:20.900Z,8.58
2023-04-19T21:25:51.019Z,8.68
2023-04-19T21:28:22.829Z,8.56
2023-04-19T21:30:56.150Z,8.76
2023-04-19T21:33:26.336Z,8.75
2023-04-19T21:35:56.643Z,8.85
2023-04-19T21:38:26.838Z,8.87
2023-04-19T21:40:56.942Z,8.90
2023-04-19T21:43:27.360Z,8.93
2023-04-19T21:46:01.994Z,8.76
2023-04-19T21:48:32.349Z,8.97
2023-04-19T21:51:03.344Z,8.98
2023-04-19T21:53:33.790Z,8.97
2023-04-19T21:56:03.897Z,8.95
2023-04-19T21:58:34.240Z,8.93
2023-04-19T22:01:07.320Z,8.93
2023-04-19T22:03:37.838Z,8.92
2023-04-19T22:06:08.671Z,8.92
2023-04-19T22:08:39.160Z,8.88
2023-04-19T22:11:09.420Z,8.83
2023-04-19T22:13:39.517Z,8.81
2023-04-19T22:16:12.767Z,8.79
2023-04-19T22:18:42.857Z,8.75
2023-04-19T22:21:14.367Z,8.58
2023-04-19T22:23:44.874Z,8.71
2023-04-19T22:26:15.261Z,8.69
2023-04-19T22:28:45.502Z,8.69
2023-04-19T22:31:18.160Z,8.68
2023-04-19T22:33:48.888Z,8.54
2023-04-19T22:36:18.997Z,8.66
2023-04-19T22:38:49.111Z,8.63
2023-04-19T22:41:19.256Z,8.46
2023-04-19T22:43:49.683Z,8.39
2023-04-19T22:46:22.423Z,8.33
2023-04-19T22:48:53.170Z,8.32
2023-04-19T22:51:24.509Z,8.25
2023-04-19T22:53:54.680Z,8.23
2023-04-19T22:56:25.083Z,8.19
2023-04-19T22:58:55.400Z,8.03
2023-04-19T23:01:28.130Z,8.02
2023-04-19T23:03:58.332Z,8.00
2023-04-19T23:06:29.151Z,7.86
2023-04-19T23:09:00.764Z,7.90
2023-04-19T23:11:30.841Z,7.89
2023-04-19T23:14:01.962Z,7.86
2023-04-19T23:16:35.273Z,7.81
2023-04-19T23:19:05.522Z,7.72
2023-04-19T23:21:36.241Z,7.68
2023-04-19T23:24:07.035Z,7.63
2023-04-19T23:26:37.421Z,7.58
2023-04-19T23:29:07.558Z,7.39
2023-04-19T23:31:40.444Z,7.02
2023-04-19T23:34:10.911Z,6.76
2023-04-19T23:36:41.154Z,6.55
2023-04-19T23:39:12.048Z,6.34
2023-04-19T23:41:42.535Z,6.31
2023-04-19T23:44:13.028Z,6.28
2023-04-19T23:46:46.340Z,6.26
2023-04-19T23:49:17.263Z,6.27
2023-04-19T23:51:49.563Z,6.23
2023-04-19T23:54:22.376Z,6.10
2023-04-19T23:56:52.549Z,6.27
2023-04-19T23:59:26.956Z,6.12
